createdAt,value
2018-09-09T00:00:28.288Z,1016.27
2018-09-09T00:01:28.243Z,1016.23
2018-09-09T00:02:28.202Z,1016.23
2018-09-09T00:03:28.156Z,1016.24
2018-09-09T00:04:28.124Z,1016.28
2018-09-09T00:05:28.075Z,1016.30
2018-09-09T00:06:28.027Z,1016.30
2018-09-09T00:07:27.983Z,1016.31
2018-09-09T00:08:27.943Z,1016.28
2018-09-09T00:09:27.902Z,1016.30
2018-09-09T00:10:27.867Z,1016.29
2018-09-09T00:11:27.810Z,1016.28
2018-09-09T00:12:27.769Z,1016.29
2018-09-09T00:13:27.727Z,1016.30
2018-09-09T00:14:27.685Z,1016.26
2018-09-09T00:15:27.675Z,1016.27
2018-09-09T00:16:27.602Z,1016.26
2018-09-09T00:17:27.553Z,1016.25
2018-09-09T00:18:27.506Z,1016.27
2018-09-09T00:19:27.468Z,1016.28
2018-09-09T00:20:27.426Z,1016.30
2018-09-09T00:21:27.379Z,1016.28
2018-09-09T00:22:27.341Z,1016.27
2018-09-09T00:23:27.295Z,1016.26
2018-09-09T00:24:27.256Z,1016.24
2018-09-09T00:25:27.214Z,1016.28
2018-09-09T00:26:27.166Z,1016.28
2018-09-09T00:27:27.122Z,1016.27
2018-09-09T00:28:27.076Z,1016.27
2018-09-09T00:29:27.038Z,1016.29
2018-09-09T00:30:26.993Z,1016.31
2018-09-09T00:31:26.948Z,1016.27
2018-09-09T00:32:26.907Z,1016.30
2018-09-09T00:33:26.871Z,1016.27
2018-09-09T00:34:26.820Z,1016.25
2018-09-09T00:35:26.774Z,1016.28
2018-09-09T00:36:26.734Z,1016.23
2018-09-09T00:37:26.694Z,1016.21
2018-09-09T00:38:26.646Z,1016.20
2018-09-09T00:39:26.602Z,1016.19
2018-09-09T00:40:26.560Z,1016.17
2018-09-09T00:41:26.519Z,1016.19
2018-09-09T00:42:26.472Z,1016.17
2018-09-09T00:43:26.450Z,1016.19
2018-09-09T00:44:26.392Z,1016.18
2018-09-09T00:45:26.344Z,1016.19
2018-09-09T00:46:26.301Z,1016.19
2018-09-09T00:47:26.260Z,1016.20
2018-09-09T00:48:26.252Z,1016.22
2018-09-09T00:49:26.166Z,1016.23
2018-09-09T00:50:26.131Z,1016.16
2018-09-09T00:51:26.083Z,1016.12
2018-09-09T00:52:26.042Z,1016.15
2018-09-09T00:53:25.997Z,1016.18
2018-09-09T00:54:25.952Z,1016.22
2018-09-09T00:55:25.910Z,1016.21
2018-09-09T00:56:25.869Z,1016.23
2018-09-09T00:57:25.832Z,1016.23
2018-09-09T00:58:25.783Z,1016.25
2018-09-09T00:59:25.740Z,1016.22
2018-09-09T01:00:25.697Z,1016.23
2018-09-09T01:01:25.649Z,1016.24
2018-09-09T01:02:25.604Z,1016.24
2018-09-09T01:03:25.563Z,1016.28
2018-09-09T01:04:25.521Z,1016.25
2018-09-09T01:05:25.477Z,1016.25
2018-09-09T01:06:25.439Z,1016.25
2018-09-09T01:07:25.388Z,1016.27
2018-09-09T01:08:25.346Z,1016.26
2018-09-09T01:09:25.310Z,1016.20
2018-09-09T01:10:25.262Z,1016.19
2018-09-09T01:11:25.223Z,1016.19
2018-09-09T01:12:25.175Z,1016.15
2018-09-09T01:13:25.134Z,1016.09
2018-09-09T01:14:25.089Z,1016.11
2018-09-09T01:15:25.042Z,1016.13
2018-09-09T01:16:25.004Z,1016.10
2018-09-09T01:17:24.960Z,1016.06
2018-09-09T01:18:24.914Z,1016.06
2018-09-09T01:19:24.869Z,1016.03
2018-09-09T01:20:24.828Z,1016.02
2018-09-09T01:21:24.786Z,1016.02
2018-09-09T01:22:24.744Z,1016.00
2018-09-09T01:23:24.695Z,1015.98
2018-09-09T01:24:24.657Z,1015.98
2018-09-09T01:25:24.608Z,1015.90
2018-09-09T01:26:24.567Z,1015.91
2018-09-09T01:27:24.526Z,1015.88
2018-09-09T01:28:24.484Z,1015.82
2018-09-09T01:29:24.439Z,1015.80
2018-09-09T01:30:24.390Z,1015.78
2018-09-09T01:31:24.352Z,1015.78
2018-09-09T01:32:24.310Z,1015.80
2018-09-09T01:33:24.266Z,1015.85
2018-09-09T01:34:24.219Z,1015.88
2018-09-09T01:35:24.176Z,1015.88
2018-09-09T01:36:24.138Z,1015.96
2018-09-09T01:37:24.092Z,1016.00
2018-09-09T01:38:24.050Z,1016.08
2018-09-09T01:39:24.008Z,1016.08
2018-09-09T01:40:23.963Z,1016.10
2018-09-09T01:41:23.918Z,1016.09
2018-09-09T01:42:23.881Z,1016.14
2018-09-09T01:43:23.834Z,1016.19
2018-09-09T01:44:23.788Z,1016.26
2018-09-09T01:45:23.747Z,1016.27
2018-09-09T01:46:23.703Z,1016.25
2018-09-09T01:47:23.660Z,1016.27
2018-09-09T01:48:23.619Z,1016.26
2018-09-09T01:49:23.574Z,1016.29
2018-09-09T01:50:23.529Z,1016.34
2018-09-09T01:51:23.488Z,1016.33
2018-09-09T01:52:23.443Z,1016.39
2018-09-09T01:53:23.399Z,1016.36
2018-09-09T01:54:23.360Z,1016.34
2018-09-09T01:55:23.350Z,1016.37
2018-09-09T01:56:23.272Z,1016.36
2018-09-09T01:57:23.227Z,1016.37
2018-09-09T01:58:23.182Z,1016.38
2018-09-09T01:59:23.137Z,1016.35
2018-09-09T02:00:23.103Z,1016.39
2018-09-09T02:01:23.052Z,1016.40
2018-09-09T02:02:23.007Z,1016.37
2018-09-09T02:03:22.971Z,1016.38
2018-09-09T02:04:22.924Z,1016.37
2018-09-09T02:05:22.881Z,1016.37
2018-09-09T02:06:22.833Z,1016.36
2018-09-09T02:07:22.801Z,1016.36
2018-09-09T02:08:22.746Z,1016.36
2018-09-09T02:09:22.703Z,1016.34
2018-09-09T02:10:22.669Z,1016.30
2018-09-09T02:11:22.619Z,1016.30
2018-09-09T02:12:22.575Z,1016.28
2018-09-09T02:13:22.530Z,1016.32
2018-09-09T02:14:22.498Z,1016.29
2018-09-09T02:15:22.450Z,1016.30
2018-09-09T02:16:22.402Z,1016.24
2018-09-09T02:17:22.360Z,1016.26
2018-09-09T02:18:22.315Z,1016.23
2018-09-09T02:19:22.285Z,1016.22
2018-09-09T02:20:22.240Z,1016.17
2018-09-09T02:21:22.199Z,1016.20
2018-09-09T02:22:22.151Z,1016.16
2018-09-09T02:23:22.109Z,1016.12
2018-09-09T02:24:22.065Z,1016.12
2018-09-09T02:25:22.023Z,1016.08
2018-09-09T02:26:21.977Z,1016.10
2018-09-09T02:27:21.927Z,1016.17
2018-09-09T02:28:21.888Z,1016.13
2018-09-09T02:29:21.840Z,1016.11
2018-09-09T02:30:21.803Z,1016.08
2018-09-09T02:31:21.753Z,1016.09
2018-09-09T02:32:21.713Z,1016.04
2018-09-09T02:33:24.041Z,1016.06
2018-09-09T02:34:23.539Z,1016.05
2018-09-09T02:35:21.573Z,1016.07
2018-09-09T02:36:21.535Z,1016.08
2018-09-09T02:37:21.494Z,1016.10
2018-09-09T02:38:21.453Z,1016.14
2018-09-09T02:39:21.408Z,1016.14
2018-09-09T02:40:21.366Z,1016.17
2018-09-09T02:41:21.318Z,1016.17
2018-09-09T02:42:21.281Z,1016.16
2018-09-09T02:43:21.239Z,1016.19
2018-09-09T02:44:21.191Z,1016.14
2018-09-09T02:45:21.149Z,1016.13
2018-09-09T02:46:21.108Z,1016.15
2018-09-09T02:47:21.063Z,1016.09
2018-09-09T02:48:21.018Z,1016.10
2018-09-09T02:49:20.977Z,1016.15
2018-09-09T02:50:20.933Z,1016.20
2018-09-09T02:51:20.892Z,1016.26
2018-09-09T02:52:20.848Z,1016.30
2018-09-09T02:53:20.799Z,1016.34
2018-09-09T02:54:20.757Z,1016.40
2018-09-09T02:55:20.749Z,1016.41
2018-09-09T02:56:20.672Z,1016.38
2018-09-09T02:57:20.629Z,1016.35
2018-09-09T02:58:20.585Z,1016.40
2018-09-09T02:59:20.540Z,1016.37
2018-09-09T03:00:20.506Z,1016.34
2018-09-09T03:01:20.456Z,1016.35
2018-09-09T03:02:20.414Z,1016.38
2018-09-09T03:03:20.369Z,1016.32
2018-09-09T03:04:20.324Z,1016.33
2018-09-09T03:05:20.287Z,1016.33
2018-09-09T03:06:20.240Z,1016.37
2018-09-09T03:07:20.198Z,1016.36
2018-09-09T03:08:20.156Z,1016.34
2018-09-09T03:09:20.107Z,1016.35
2018-09-09T03:10:20.554Z,1016.34
2018-09-09T03:11:23.053Z,1016.35
2018-09-09T03:13:19.934Z,1016.40
2018-09-09T03:14:19.892Z,1016.43
2018-09-09T03:15:19.851Z,1016.41
2018-09-09T03:16:19.805Z,1016.43
2018-09-09T03:17:19.764Z,1016.41
2018-09-09T03:18:19.723Z,1016.38
2018-09-09T03:19:19.678Z,1016.39
2018-09-09T03:20:19.635Z,1016.34
2018-09-09T03:21:19.591Z,1016.36
2018-09-09T03:22:19.549Z,1016.37
2018-09-09T03:23:19.504Z,1016.37
2018-09-09T03:24:19.459Z,1016.35
2018-09-09T03:25:19.421Z,1016.31
2018-09-09T03:26:19.373Z,1016.27
2018-09-09T03:27:19.332Z,1016.27
2018-09-09T03:28:19.324Z,1016.29
2018-09-09T03:29:21.056Z,1016.30
2018-09-09T03:30:19.203Z,1016.34
2018-09-09T03:31:19.154Z,1016.34
2018-09-09T03:32:19.118Z,1016.36
2018-09-09T03:33:19.069Z,1016.38
2018-09-09T03:34:19.083Z,1016.34
2018-09-09T03:35:19.119Z,1016.32
2018-09-09T03:36:18.952Z,1016.26
2018-09-09T03:37:19.135Z,1016.27
2018-09-09T03:38:19.040Z,1016.24
2018-09-09T03:39:18.810Z,1016.27
2018-09-09T03:40:18.768Z,1016.26
2018-09-09T03:41:18.723Z,1016.26
2018-09-09T03:42:18.682Z,1016.24
2018-09-09T03:43:18.639Z,1016.22
2018-09-09T03:44:18.593Z,1016.26
2018-09-09T03:45:18.551Z,1016.26
2018-09-09T03:46:18.507Z,1016.28
2018-09-09T03:47:18.466Z,1016.26
2018-09-09T03:48:18.424Z,1016.26
2018-09-09T03:49:18.380Z,1016.23
2018-09-09T03:50:18.339Z,1016.24
2018-09-09T03:51:18.294Z,1016.20
2018-09-09T03:52:18.248Z,1016.17
2018-09-09T03:53:18.206Z,1016.12
2018-09-09T03:54:18.172Z,1016.08
2018-09-09T03:55:18.118Z,1016.04
2018-09-09T03:56:18.076Z,1016.08
2018-09-09T03:57:18.027Z,1016.09
2018-09-09T03:58:17.989Z,1016.13
2018-09-09T03:59:17.947Z,1016.14
2018-09-09T04:00:17.900Z,1016.12
2018-09-09T04:01:17.856Z,1016.08
2018-09-09T04:02:17.817Z,1016.07
2018-09-09T04:03:17.782Z,1016.09
2018-09-09T04:04:17.728Z,1016.07
2018-09-09T04:05:17.681Z,1016.07
2018-09-09T04:06:17.644Z,1016.10
2018-09-09T04:07:17.599Z,1016.11
2018-09-09T04:08:17.560Z,1016.08
2018-09-09T04:09:17.512Z,1016.11
2018-09-09T04:10:17.470Z,1016.10
2018-09-09T04:11:17.425Z,1016.14
2018-09-09T04:12:17.384Z,1016.13
2018-09-09T04:13:17.342Z,1016.14
2018-09-09T04:14:17.301Z,1016.14
2018-09-09T04:15:17.253Z,1016.16
2018-09-09T04:16:17.211Z,1016.13
2018-09-09T04:17:17.160Z,1016.15
2018-09-09T04:18:17.128Z,1016.10
2018-09-09T04:19:17.082Z,1016.12
2018-09-09T04:20:17.036Z,1016.08
2018-09-09T04:21:16.993Z,1016.11
2018-09-09T04:22:16.951Z,1016.08
2018-09-09T04:23:16.908Z,1016.09
2018-09-09T04:24:16.867Z,1016.10
2018-09-09T04:25:16.819Z,1016.14
2018-09-09T04:26:16.789Z,1016.15
2018-09-09T04:27:16.734Z,1016.18
2018-09-09T04:28:16.688Z,1016.20
2018-09-09T04:29:16.650Z,1016.19
2018-09-09T04:30:16.602Z,1016.20
2018-09-09T04:31:16.564Z,1016.18
2018-09-09T04:32:16.519Z,1016.15
2018-09-09T04:33:16.474Z,1016.12
2018-09-09T04:34:16.429Z,1016.12
2018-09-09T04:35:16.389Z,1016.10
2018-09-09T04:36:16.346Z,1016.08
2018-09-09T04:37:16.309Z,1016.12
2018-09-09T04:38:16.260Z,1016.16
2018-09-09T04:39:16.212Z,1016.18
2018-09-09T04:40:16.171Z,1016.15
2018-09-09T04:41:16.135Z,1016.19
2018-09-09T04:42:16.083Z,1016.19
2018-09-09T04:43:16.044Z,1016.28
2018-09-09T04:44:15.999Z,1016.28
2018-09-09T04:45:15.952Z,1016.32
2018-09-09T04:46:15.913Z,1016.36
2018-09-09T04:47:15.865Z,1016.40
2018-09-09T04:48:15.827Z,1016.43
2018-09-09T04:49:15.780Z,1016.43
2018-09-09T04:50:15.734Z,1016.40
2018-09-09T04:51:15.702Z,1016.40
2018-09-09T04:52:15.654Z,1016.38
2018-09-09T04:53:15.609Z,1016.36
2018-09-09T04:54:15.567Z,1016.36
2018-09-09T04:55:15.522Z,1016.39
2018-09-09T04:56:15.488Z,1016.38
2018-09-09T04:57:15.437Z,1016.40
2018-09-09T04:58:15.392Z,1016.42
2018-09-09T04:59:15.350Z,1016.43
2018-09-09T05:00:15.308Z,1016.44
2018-09-09T05:01:15.324Z,1016.43
2018-09-09T05:02:15.218Z,1016.41
2018-09-09T05:03:15.177Z,1016.39
2018-09-09T05:04:15.135Z,1016.43
2018-09-09T05:05:15.091Z,1016.42
2018-09-09T05:06:15.055Z,1016.46
2018-09-09T05:07:15.007Z,1016.51
2018-09-09T05:08:14.959Z,1016.55
2018-09-09T05:09:14.917Z,1016.52
2018-09-09T05:10:14.876Z,1016.56
2018-09-09T05:11:14.831Z,1016.59
2018-09-09T05:12:14.792Z,1016.64
2018-09-09T05:13:14.744Z,1016.65
2018-09-09T05:14:14.694Z,1016.67
2018-09-09T05:15:14.654Z,1016.66
2018-09-09T05:16:14.621Z,1016.64
2018-09-09T05:17:14.574Z,1016.65
2018-09-09T05:18:14.533Z,1016.63
2018-09-09T05:19:14.486Z,1016.64
2018-09-09T05:20:15.101Z,1016.65
2018-09-09T05:21:14.402Z,1016.59
2018-09-09T05:22:14.355Z,1016.61
2018-09-09T05:23:14.310Z,1016.58
2018-09-09T05:24:14.266Z,1016.60
2018-09-09T05:25:14.225Z,1016.61
2018-09-09T05:26:14.179Z,1016.61
2018-09-09T05:27:14.141Z,1016.62
2018-09-09T05:28:14.096Z,1016.62
2018-09-09T05:29:14.053Z,1016.61
2018-09-09T05:30:14.007Z,1016.59
2018-09-09T05:31:13.962Z,1016.60
2018-09-09T05:32:13.922Z,1016.61
2018-09-09T05:33:13.876Z,1016.60
2018-09-09T05:34:14.598Z,1016.57
2018-09-09T05:37:14.597Z,1016.55
2018-09-09T05:39:13.638Z,1016.57
2018-09-09T05:40:13.576Z,1016.57
2018-09-09T05:41:13.531Z,1016.56
2018-09-09T05:42:13.490Z,1016.57
2018-09-09T05:43:13.443Z,1016.57
2018-09-09T05:44:13.407Z,1016.58
2018-09-09T05:45:13.360Z,1016.58
2018-09-09T05:46:13.316Z,1016.61
2018-09-09T05:47:13.273Z,1016.64
2018-09-09T05:48:13.237Z,1016.64
2018-09-09T05:49:13.185Z,1016.65
2018-09-09T05:50:13.141Z,1016.67
2018-09-09T05:51:13.101Z,1016.70
2018-09-09T05:52:13.057Z,1016.71
2018-09-09T05:53:13.011Z,1016.71
2018-09-09T05:54:12.970Z,1016.72
2018-09-09T05:55:12.925Z,1016.73
2018-09-09T05:56:12.880Z,1016.74
2018-09-09T05:57:12.838Z,1016.76
2018-09-09T05:58:12.799Z,1016.76
2018-09-09T05:59:15.613Z,1016.76
2018-09-09T06:00:19.603Z,1016.79
2018-09-09T06:01:17.115Z,1016.77
2018-09-09T06:02:12.620Z,1016.81
2018-09-09T06:03:12.578Z,1016.77
2018-09-09T06:04:12.536Z,1016.82
2018-09-09T06:05:12.499Z,1016.80
2018-09-09T06:06:12.449Z,1016.82
2018-09-09T06:07:12.420Z,1016.78
2018-09-09T06:08:12.354Z,1016.73
2018-09-09T06:09:12.322Z,1016.74
2018-09-09T06:10:12.276Z,1016.76
2018-09-09T06:11:12.231Z,1016.76
2018-09-09T06:12:12.193Z,1016.76
2018-09-09T06:13:12.149Z,1016.77
2018-09-09T06:14:12.102Z,1016.80
2018-09-09T06:15:12.060Z,1016.85
2018-09-09T06:16:12.030Z,1016.82
2018-09-09T06:17:11.971Z,1016.82
2018-09-09T06:18:11.930Z,1016.84
2018-09-09T06:19:11.888Z,1016.87
2018-09-09T06:20:11.844Z,1016.89
2018-09-09T06:21:11.796Z,1016.89
2018-09-09T06:22:11.754Z,1016.91
2018-09-09T06:23:11.712Z,1016.95
2018-09-09T06:24:11.675Z,1016.97
2018-09-09T06:25:11.636Z,1016.96
2018-09-09T06:26:11.582Z,1016.98
2018-09-09T06:27:11.547Z,1016.98
2018-09-09T06:28:11.555Z,1017.03
2018-09-09T06:29:11.473Z,1017.03
2018-09-09T06:30:11.409Z,1017.04
2018-09-09T06:31:11.368Z,1017.03
2018-09-09T06:32:11.323Z,1017.00
2018-09-09T06:33:11.286Z,1017.06
2018-09-09T06:34:11.238Z,1017.09
2018-09-09T06:35:11.195Z,1017.06
2018-09-09T06:36:11.151Z,1017.07
2018-09-09T06:37:11.104Z,1017.07
2018-09-09T06:38:11.065Z,1017.09
2018-09-09T06:39:11.118Z,1017.10
2018-09-09T06:40:10.990Z,1017.09
2018-09-09T06:41:10.932Z,1017.10
2018-09-09T06:42:11.617Z,1017.08
2018-09-09T06:43:10.860Z,1017.04
2018-09-09T06:45:10.764Z,1017.04
2018-09-09T06:46:10.716Z,1017.02
2018-09-09T06:47:10.679Z,1017.06
2018-09-09T06:48:10.631Z,1017.03
2018-09-09T06:49:10.589Z,1017.06
2018-09-09T06:50:10.541Z,1017.05
2018-09-09T06:51:10.560Z,1017.06
2018-09-09T06:52:10.454Z,1017.05
2018-09-09T06:53:10.416Z,1017.04
2018-09-09T06:54:10.371Z,1017.04
2018-09-09T06:55:10.326Z,1017.03
2018-09-09T06:56:10.310Z,1017.03
2018-09-09T06:57:10.268Z,1017.05
2018-09-09T06:58:10.198Z,1017.05
2018-09-09T06:59:10.156Z,1017.10
2018-09-09T07:00:10.114Z,1017.09
2018-09-09T07:01:10.066Z,1017.11
2018-09-09T07:02:10.048Z,1017.07
2018-09-09T07:03:09.990Z,1017.08
2018-09-09T07:04:09.941Z,1017.06
2018-09-09T07:05:09.894Z,1017.03
2018-09-09T07:06:09.851Z,1017.07
2018-09-09T07:07:09.809Z,1017.05
2018-09-09T07:08:09.759Z,1017.07
2018-09-09T07:09:09.720Z,1017.04
2018-09-09T07:10:09.677Z,1017.03
2018-09-09T07:11:09.715Z,1017.06
2018-09-09T07:12:09.598Z,1017.07
2018-09-09T07:13:09.552Z,1017.07
2018-09-09T07:14:09.505Z,1017.07
2018-09-09T07:15:09.464Z,1017.07
2018-09-09T07:16:09.432Z,1017.07
2018-09-09T07:17:09.415Z,1017.05
2018-09-09T07:18:09.335Z,1017.09
2018-09-09T07:19:09.295Z,1017.07
2018-09-09T07:20:09.243Z,1017.09
2018-09-09T07:21:09.209Z,1017.04
2018-09-09T07:22:09.168Z,1017.03
2018-09-09T07:23:09.115Z,1017.05
2018-09-09T07:24:09.073Z,1017.02
2018-09-09T07:25:09.029Z,1017.01
2018-09-09T07:26:08.978Z,1016.97
2018-09-09T07:27:08.951Z,1016.95
2018-09-09T07:28:08.902Z,1016.99
2018-09-09T07:29:08.862Z,1016.96
2018-09-09T07:30:08.838Z,1016.97
2018-09-09T07:31:08.799Z,1017.01
2018-09-09T07:32:08.726Z,1017.00
2018-09-09T07:33:08.685Z,1017.00
2018-09-09T07:34:08.701Z,1017.00
2018-09-09T07:35:08.605Z,1017.01
2018-09-09T07:36:08.555Z,1017.00
2018-09-09T07:37:08.571Z,1017.08
2018-09-09T07:38:08.470Z,1017.07
2018-09-09T07:39:08.429Z,1017.11
2018-09-09T07:40:08.387Z,1017.17
2018-09-09T07:41:08.332Z,1017.18
2018-09-09T07:42:08.295Z,1017.19
2018-09-09T07:43:08.251Z,1017.22
2018-09-09T07:44:08.205Z,1017.23
2018-09-09T07:45:08.161Z,1017.24
2018-09-09T07:46:08.126Z,1017.26
2018-09-09T07:47:08.077Z,1017.27
2018-09-09T07:48:08.036Z,1017.32
2018-09-09T07:49:07.991Z,1017.31
2018-09-09T07:50:07.949Z,1017.28
2018-09-09T07:51:07.900Z,1017.28
2018-09-09T07:52:07.862Z,1017.32
2018-09-09T07:53:07.813Z,1017.36
2018-09-09T07:54:07.773Z,1017.35
2018-09-09T07:55:07.731Z,1017.32
2018-09-09T07:56:07.686Z,1017.32
2018-09-09T07:57:07.642Z,1017.33
2018-09-09T07:58:07.602Z,1017.34
2018-09-09T07:59:07.554Z,1017.33
2018-09-09T08:00:07.517Z,1017.32
2018-09-09T08:01:07.468Z,1017.29
2018-09-09T08:02:07.429Z,1017.32
2018-09-09T08:03:07.394Z,1017.32
2018-09-09T08:04:07.350Z,1017.33
2018-09-09T08:05:07.297Z,1017.30
2018-09-09T08:06:07.268Z,1017.31
2018-09-09T08:07:07.211Z,1017.35
2018-09-09T08:08:07.178Z,1017.39
2018-09-09T08:09:07.121Z,1017.36
2018-09-09T08:10:07.082Z,1017.40
2018-09-09T08:11:07.035Z,1017.41
2018-09-09T08:12:07.003Z,1017.38
2018-09-09T08:13:06.952Z,1017.35
2018-09-09T08:14:06.908Z,1017.37
2018-09-09T08:15:06.868Z,1017.34
2018-09-09T08:16:06.821Z,1017.39
2018-09-09T08:17:06.773Z,1017.35
2018-09-09T08:18:06.734Z,1017.38
2018-09-09T08:19:06.694Z,1017.38
2018-09-09T08:20:06.645Z,1017.38
2018-09-09T08:21:06.604Z,1017.44
2018-09-09T08:22:06.562Z,1017.38
2018-09-09T08:23:06.530Z,1017.38
2018-09-09T08:24:06.485Z,1017.37
2018-09-09T08:25:06.434Z,1017.35
2018-09-09T08:26:06.384Z,1017.32
2018-09-09T08:27:06.349Z,1017.35
2018-09-09T08:28:06.302Z,1017.35
2018-09-09T08:29:06.254Z,1017.36
2018-09-09T08:30:06.232Z,1017.33
2018-09-09T08:31:06.176Z,1017.28
2018-09-09T08:32:06.123Z,1017.33
2018-09-09T08:33:06.083Z,1017.28
2018-09-09T08:34:06.042Z,1017.28
2018-09-09T08:35:06.000Z,1017.31
2018-09-09T08:36:05.956Z,1017.32
2018-09-09T08:37:05.909Z,1017.34
2018-09-09T08:38:05.867Z,1017.36
2018-09-09T08:39:05.825Z,1017.36
2018-09-09T08:40:05.781Z,1017.40
2018-09-09T08:41:05.741Z,1017.40
2018-09-09T08:42:05.700Z,1017.39
2018-09-09T08:43:05.652Z,1017.39
2018-09-09T08:44:05.607Z,1017.43
2018-09-09T08:45:05.569Z,1017.39
2018-09-09T08:46:05.517Z,1017.46
2018-09-09T08:47:05.481Z,1017.43
2018-09-09T08:48:05.437Z,1017.43
2018-09-09T08:49:05.388Z,1017.44
2018-09-09T08:50:05.347Z,1017.47
2018-09-09T08:51:05.309Z,1017.46
2018-09-09T08:52:05.394Z,1017.47
2018-09-09T08:53:05.222Z,1017.51
2018-09-09T08:54:05.180Z,1017.44
2018-09-09T08:55:05.133Z,1017.47
2018-09-09T08:56:05.088Z,1017.47
2018-09-09T08:57:05.046Z,1017.45
2018-09-09T08:58:05.004Z,1017.44
2018-09-09T08:59:04.963Z,1017.44
2018-09-09T09:00:04.921Z,1017.45
2018-09-09T09:01:04.872Z,1017.42
2018-09-09T09:02:04.827Z,1017.42
2018-09-09T09:03:04.785Z,1017.42
2018-09-09T09:04:04.740Z,1017.46
2018-09-09T09:05:04.695Z,1017.43
2018-09-09T09:06:04.654Z,1017.41
2018-09-09T09:07:04.613Z,1017.40
2018-09-09T09:08:04.633Z,1017.38
2018-09-09T09:09:04.523Z,1017.42
2018-09-09T09:10:04.473Z,1017.41
2018-09-09T09:11:04.437Z,1017.39
2018-09-09T09:12:04.386Z,1017.40
2018-09-09T09:13:04.351Z,1017.42
2018-09-09T09:14:04.306Z,1017.40
2018-09-09T09:15:04.271Z,1017.38
2018-09-09T09:16:04.220Z,1017.39
2018-09-09T09:17:04.179Z,1017.41
2018-09-09T09:18:04.140Z,1017.44
2018-09-09T09:19:04.093Z,1017.41
2018-09-09T09:20:04.051Z,1017.42
2018-09-09T09:21:04.007Z,1017.40
2018-09-09T09:22:03.962Z,1017.40
2018-09-09T09:23:03.918Z,1017.41
2018-09-09T09:24:03.878Z,1017.39
2018-09-09T09:25:03.835Z,1017.43
2018-09-09T09:26:03.793Z,1017.42
2018-09-09T09:27:03.752Z,1017.39
2018-09-09T09:28:03.703Z,1017.40
2018-09-09T09:29:03.658Z,1017.43
2018-09-09T09:30:03.624Z,1017.46
2018-09-09T09:31:03.572Z,1017.45
2018-09-09T09:32:03.536Z,1017.45
2018-09-09T09:33:03.483Z,1017.48
2018-09-09T09:34:03.448Z,1017.49
2018-09-09T09:35:03.397Z,1017.49
2018-09-09T09:36:03.359Z,1017.49
2018-09-09T09:37:03.309Z,1017.48
2018-09-09T09:38:03.271Z,1017.47
2018-09-09T09:39:03.236Z,1017.45
2018-09-09T09:40:03.182Z,1017.40
2018-09-09T09:41:03.143Z,1017.37
2018-09-09T09:42:03.096Z,1017.37
2018-09-09T09:43:03.056Z,1017.34
2018-09-09T09:44:03.011Z,1017.33
2018-09-09T09:45:02.974Z,1017.33
2018-09-09T09:46:02.925Z,1017.35
2018-09-09T09:47:02.883Z,1017.34
2018-09-09T09:48:02.835Z,1017.32
2018-09-09T09:49:02.793Z,1017.32
2018-09-09T09:50:02.755Z,1017.35
2018-09-09T09:51:02.700Z,1017.32
2018-09-09T09:52:02.711Z,1017.34
2018-09-09T09:53:02.670Z,1017.38
2018-09-09T09:54:02.575Z,1017.33
2018-09-09T09:55:02.553Z,1017.33
2018-09-09T09:56:02.497Z,1017.34
2018-09-09T09:57:02.446Z,1017.38
2018-09-09T09:58:02.411Z,1017.32
2018-09-09T09:59:02.363Z,1017.32
2018-09-09T10:00:02.319Z,1017.28
2018-09-09T10:01:02.271Z,1017.31
2018-09-09T10:02:02.238Z,1017.31
2018-09-09T10:03:02.189Z,1017.30
2018-09-09T10:04:02.146Z,1017.35
2018-09-09T10:05:02.102Z,1017.33
2018-09-09T10:06:02.060Z,1017.34
2018-09-09T10:07:02.019Z,1017.34
2018-09-09T10:08:01.973Z,1017.35
2018-09-09T10:09:01.980Z,1017.35
2018-09-09T10:10:01.897Z,1017.33
2018-09-09T10:11:01.839Z,1017.33
2018-09-09T10:12:01.802Z,1017.33
2018-09-09T10:13:01.757Z,1017.35
2018-09-09T10:14:01.710Z,1017.33
2018-09-09T10:15:01.696Z,1017.40
2018-09-09T10:16:01.623Z,1017.43
2018-09-09T10:17:01.590Z,1017.42
2018-09-09T10:18:01.537Z,1017.43
2018-09-09T10:19:01.497Z,1017.42
2018-09-09T10:20:01.455Z,1017.49
2018-09-09T10:21:01.411Z,1017.44
2018-09-09T10:22:01.368Z,1017.49
2018-09-09T10:23:01.329Z,1017.40
2018-09-09T10:24:01.271Z,1017.38
2018-09-09T10:25:01.235Z,1017.38
2018-09-09T10:26:01.197Z,1017.45
2018-09-09T10:27:01.150Z,1017.40
2018-09-09T10:28:01.109Z,1017.42
2018-09-09T10:29:01.064Z,1017.41
2018-09-09T10:30:01.056Z,1017.39
2018-09-09T10:31:00.978Z,1017.37
2018-09-09T10:32:00.933Z,1017.46
2018-09-09T10:33:00.891Z,1017.45
2018-09-09T10:34:00.849Z,1017.46
2018-09-09T10:35:00.811Z,1017.46
2018-09-09T10:36:00.764Z,1017.46
2018-09-09T10:37:00.717Z,1017.44
2018-09-09T10:38:00.679Z,1017.51
2018-09-09T10:39:00.630Z,1017.44
2018-09-09T10:40:00.589Z,1017.39
2018-09-09T10:41:00.617Z,1017.33
2018-09-09T10:42:00.501Z,1017.32
2018-09-09T10:43:00.458Z,1017.30
2018-09-09T10:44:00.413Z,1017.36
2018-09-09T10:45:00.371Z,1017.32
2018-09-09T10:46:00.396Z,1017.35
2018-09-09T10:47:00.294Z,1017.36
2018-09-09T10:48:00.240Z,1017.37
2018-09-09T10:49:00.213Z,1017.32
2018-09-09T10:50:00.167Z,1017.34
2018-09-09T10:51:00.116Z,1017.34
2018-09-09T10:52:00.069Z,1017.36
2018-09-09T10:53:00.036Z,1017.36
2018-09-09T10:53:59.974Z,1017.37
2018-09-09T10:54:59.941Z,1017.35
2018-09-09T10:55:59.897Z,1017.38
2018-09-09T10:56:59.855Z,1017.41
2018-09-09T10:57:59.811Z,1017.35
2018-09-09T10:58:59.766Z,1017.42
2018-09-09T10:59:59.724Z,1017.42
2018-09-09T11:00:59.676Z,1017.40
2018-09-09T11:01:59.644Z,1017.37
2018-09-09T11:02:59.612Z,1017.40
2018-09-09T11:03:59.563Z,1017.35
2018-09-09T11:04:59.508Z,1017.35
2018-09-09T11:05:59.468Z,1017.32
2018-09-09T11:06:59.503Z,1017.29
2018-09-09T11:07:59.379Z,1017.26
2018-09-09T11:08:59.334Z,1017.28
2018-09-09T11:09:59.292Z,1017.22
2018-09-09T11:10:59.249Z,1017.26
2018-09-09T11:11:59.211Z,1017.23
2018-09-09T11:12:59.213Z,1017.23
2018-09-09T11:13:59.114Z,1017.17
2018-09-09T11:14:59.074Z,1017.20
2018-09-09T11:15:59.032Z,1017.16
2018-09-09T11:16:58.979Z,1017.14
2018-09-09T11:17:58.943Z,1017.16
2018-09-09T11:18:58.960Z,1017.18
2018-09-09T11:19:58.862Z,1017.15
2018-09-09T11:20:58.820Z,1017.10
2018-09-09T11:21:58.778Z,1017.16
2018-09-09T11:22:58.734Z,1017.12
2018-09-09T11:23:58.704Z,1017.12
2018-09-09T11:24:58.645Z,1017.11
2018-09-09T11:25:58.597Z,1017.15
2018-09-09T11:26:58.556Z,1017.21
2018-09-09T11:27:58.519Z,1017.17
2018-09-09T11:28:58.469Z,1017.23
2018-09-09T11:29:58.465Z,1017.18
2018-09-09T11:30:58.382Z,1017.20
2018-09-09T11:31:58.335Z,1017.15
2018-09-09T11:32:58.299Z,1017.15
2018-09-09T11:33:58.254Z,1017.13
2018-09-09T11:34:58.209Z,1017.11
2018-09-09T11:35:58.170Z,1017.09
2018-09-09T11:36:58.126Z,1017.14
2018-09-09T11:37:58.084Z,1017.11
2018-09-09T11:38:58.046Z,1017.15
2018-09-09T11:39:58.003Z,1017.17
2018-09-09T11:40:57.953Z,1017.13
2018-09-09T11:41:57.911Z,1017.14
2018-09-09T11:42:57.867Z,1017.15
2018-09-09T11:43:57.831Z,1017.12
2018-09-09T11:44:57.776Z,1017.12
2018-09-09T11:45:57.739Z,1017.07
2018-09-09T11:46:57.695Z,1017.08
2018-09-09T11:47:57.658Z,1017.04
2018-09-09T11:48:57.607Z,1017.03
2018-09-09T11:49:57.566Z,1017.06
2018-09-09T11:50:57.519Z,1017.00
2018-09-09T11:51:57.484Z,1017.02
2018-09-09T11:52:57.470Z,1016.99
2018-09-09T11:53:57.391Z,1017.03
2018-09-09T11:54:57.355Z,1016.99
2018-09-09T11:55:57.302Z,1016.95
2018-09-09T11:56:57.266Z,1016.99
2018-09-09T11:57:57.216Z,1016.90
2018-09-09T11:58:57.175Z,1016.92
2018-09-09T11:59:57.129Z,1016.90
2018-09-09T12:00:57.085Z,1016.91
2018-09-09T12:01:57.079Z,1016.89
2018-09-09T12:02:57.053Z,1016.87
2018-09-09T12:03:57.162Z,1016.88
2018-09-09T12:04:57.126Z,1016.90
2018-09-09T12:05:56.881Z,1016.88
2018-09-09T12:06:56.960Z,1016.94
2018-09-09T12:07:56.879Z,1016.85
2018-09-09T12:08:56.740Z,1016.86
2018-09-09T12:09:56.697Z,1016.88